createdAt,value
2018-06-15T00:02:30.031Z,30.87
2018-06-15T00:04:57.817Z,32.00
2018-06-15T00:07:25.615Z,32.23
2018-06-15T00:09:53.293Z,34.33
2018-06-15T00:12:21.089Z,32.60
2018-06-15T00:14:48.701Z,33.83
2018-06-15T00:17:16.391Z,34.83
2018-06-15T00:19:44.005Z,33.57
2018-06-15T00:22:11.632Z,34.30
2018-06-15T00:24:39.250Z,32.10
2018-06-15T00:27:07.053Z,33.67
2018-06-15T00:29:34.721Z,32.20
2018-06-15T00:32:02.616Z,33.40
2018-06-15T00:34:30.161Z,33.20
2018-06-15T00:36:57.786Z,32.90
2018-06-15T00:39:25.500Z,34.70
2018-06-15T00:41:53.216Z,33.10
2018-06-15T00:44:20.799Z,36.97
2018-06-15T00:46:48.415Z,36.97
2018-06-15T00:49:15.999Z,35.93
2018-06-15T00:51:44.022Z,35.80
2018-06-15T00:54:11.693Z,33.80
2018-06-15T00:56:50.971Z,33.60
2018-06-15T00:59:18.591Z,32.17
2018-06-15T01:01:46.263Z,34.60
2018-06-15T01:04:13.893Z,31.77
2018-06-15T01:06:41.577Z,31.23
2018-06-15T01:09:10.417Z,33.40
2018-06-15T01:11:38.292Z,32.90
2018-06-15T01:14:05.977Z,35.30
2018-06-15T01:16:33.543Z,33.20
2018-06-15T01:19:01.664Z,32.10
2018-06-15T01:21:29.427Z,33.23
2018-06-15T01:23:57.049Z,31.87
2018-06-15T01:26:24.616Z,30.93
2018-06-15T01:28:52.217Z,31.40
2018-06-15T01:31:19.868Z,31.07
2018-06-15T01:33:47.498Z,32.67
2018-06-15T01:36:15.322Z,34.77
2018-06-15T01:38:42.960Z,34.70
2018-06-15T01:41:10.557Z,38.47
2018-06-15T01:43:38.218Z,35.17
2018-06-15T01:46:05.762Z,33.53
2018-06-15T01:48:33.360Z,31.57
2018-06-15T01:51:00.950Z,32.57
2018-06-15T01:53:28.736Z,30.93
2018-06-15T01:55:56.405Z,31.73
2018-06-15T01:58:24.311Z,32.70
2018-06-15T02:00:51.849Z,31.20
2018-06-15T02:03:19.531Z,32.30
2018-06-15T02:05:47.229Z,30.00
2018-06-15T02:08:15.168Z,30.23
2018-06-15T02:10:42.770Z,29.33
2018-06-15T02:13:10.358Z,30.27
2018-06-15T02:15:37.982Z,29.90
2018-06-15T02:18:05.599Z,30.50
2018-06-15T02:20:33.421Z,30.90
2018-06-15T02:23:01.065Z,30.07
2018-06-15T02:25:28.870Z,29.20
2018-06-15T02:27:56.487Z,28.47
2018-06-15T02:30:24.110Z,27.23
2018-06-15T02:32:51.674Z,28.90
2018-06-15T02:35:19.295Z,29.67
2018-06-15T02:37:46.863Z,28.43
2018-06-15T02:40:14.661Z,31.17
2018-06-15T02:42:42.353Z,28.93
2018-06-15T02:45:10.065Z,30.10
2018-06-15T02:47:37.782Z,29.83
2018-06-15T02:50:05.476Z,30.53
2018-06-15T02:52:33.215Z,29.53
2018-06-15T02:55:00.878Z,29.40
2018-06-15T02:57:36.093Z,27.80
2018-06-15T03:00:04.795Z,25.13
2018-06-15T03:02:32.379Z,24.70
2018-06-15T03:05:00.076Z,25.60
2018-06-15T03:07:27.645Z,25.93
2018-06-15T03:09:55.267Z,26.30
2018-06-15T03:12:22.817Z,24.83
2018-06-15T03:14:50.429Z,28.37
2018-06-15T03:17:18.046Z,32.40
2018-06-15T03:19:45.687Z,34.87
2018-06-15T03:22:13.272Z,33.57
2018-06-15T03:24:40.910Z,32.40
2018-06-15T03:27:08.499Z,33.80
2018-06-15T03:29:36.097Z,31.00
2018-06-15T03:32:03.634Z,31.83
2018-06-15T03:34:31.250Z,31.27
2018-06-15T03:36:58.799Z,30.70
2018-06-15T03:39:26.436Z,30.90
2018-06-15T03:41:54.039Z,30.13
2018-06-15T03:44:21.696Z,30.33
2018-06-15T03:46:49.254Z,30.10
2018-06-15T03:49:16.899Z,31.90
2018-06-15T03:51:44.503Z,32.53
2018-06-15T03:54:12.146Z,32.93
2018-06-15T03:56:39.770Z,33.83
2018-06-15T03:59:07.350Z,35.00
2018-06-15T04:01:34.990Z,33.53
2018-06-15T04:04:02.532Z,33.70
2018-06-15T04:06:30.166Z,29.63
2018-06-15T04:08:57.775Z,32.80
2018-06-15T04:11:25.378Z,33.83
2018-06-15T04:13:52.940Z,34.77
2018-06-15T04:16:20.556Z,36.20
2018-06-15T04:18:48.134Z,34.60
2018-06-15T04:21:16.054Z,33.53
2018-06-15T04:23:43.736Z,30.33
2018-06-15T04:26:11.345Z,31.67
2018-06-15T04:28:39.737Z,30.67
2018-06-15T04:31:07.388Z,31.83
2018-06-15T04:33:35.049Z,31.27
2018-06-15T04:36:02.685Z,32.93
2018-06-15T04:38:30.334Z,31.73
2018-06-15T04:40:57.905Z,32.90
2018-06-15T04:43:25.461Z,32.23
2018-06-15T04:45:53.044Z,31.13
2018-06-15T04:48:20.640Z,31.60
2018-06-15T04:50:48.318Z,29.20
2018-06-15T04:53:15.888Z,31.73
2018-06-15T04:55:43.465Z,29.37
2018-06-15T04:58:11.009Z,28.87
2018-06-15T05:00:40.022Z,29.90
2018-06-15T05:03:07.685Z,30.57
2018-06-15T05:05:35.322Z,29.70
2018-06-15T05:08:02.973Z,28.07
2018-06-15T05:10:30.567Z,28.43
2018-06-15T05:12:58.177Z,30.63
2018-06-15T05:15:25.818Z,26.87
2018-06-15T05:17:53.450Z,31.60
2018-06-15T05:20:21.046Z,29.90
2018-06-15T05:22:48.643Z,30.13
2018-06-15T05:25:16.484Z,30.83
2018-06-15T05:27:44.069Z,31.70
2018-06-15T05:30:11.720Z,29.20
2018-06-15T05:32:39.405Z,30.83
2018-06-15T05:35:07.665Z,30.93
2018-06-15T05:37:35.556Z,28.07
2018-06-15T05:40:03.591Z,29.83
2018-06-15T05:42:31.200Z,29.93
2018-06-15T05:44:58.784Z,28.30
2018-06-15T05:47:26.356Z,28.50
2018-06-15T05:49:53.930Z,27.10
2018-06-15T05:52:21.577Z,24.83
2018-06-15T05:54:49.188Z,26.87
2018-06-15T05:57:16.865Z,23.53
2018-06-15T05:59:44.476Z,23.50
2018-06-15T06:02:12.185Z,22.87
2018-06-15T06:04:39.811Z,23.03
2018-06-15T06:07:07.471Z,21.83
2018-06-15T06:09:35.096Z,21.37
2018-06-15T06:12:02.758Z,21.90
2018-06-15T06:14:30.353Z,19.93
2018-06-15T06:16:57.974Z,19.70
2018-06-15T06:19:25.569Z,18.33
2018-06-15T06:21:53.234Z,17.40
2018-06-15T06:24:20.858Z,16.97
2018-06-15T06:26:48.514Z,17.93
2018-06-15T06:29:16.110Z,16.30
2018-06-15T06:31:43.709Z,19.67
2018-06-15T06:34:11.424Z,18.43
2018-06-15T06:36:39.054Z,18.13
2018-06-15T06:39:08.527Z,17.43
2018-06-15T06:41:36.194Z,18.30
2018-06-15T06:44:03.814Z,16.80
2018-06-15T06:46:31.746Z,16.57
2018-06-15T06:48:59.413Z,14.17
2018-06-15T06:51:27.101Z,14.67
2018-06-15T06:53:54.736Z,12.57
2018-06-15T06:56:22.353Z,11.47
2018-06-15T06:58:49.958Z,10.07
2018-06-15T07:01:17.764Z,12.93
2018-06-15T07:03:45.407Z,23.30
2018-06-15T07:06:13.005Z,9.47
2018-06-15T07:08:40.895Z,9.87
2018-06-15T07:11:08.477Z,10.87
2018-06-15T07:13:36.092Z,13.27
2018-06-15T07:16:03.710Z,12.97
2018-06-15T07:18:31.393Z,12.63
2018-06-15T07:20:59.073Z,10.80
2018-06-15T07:23:26.798Z,9.73
2018-06-15T07:25:54.391Z,9.00
2018-06-15T07:28:22.034Z,8.57
2018-06-15T07:30:49.619Z,8.87
2018-06-15T07:33:17.238Z,8.10
2018-06-15T07:35:44.942Z,9.07
2018-06-15T07:38:12.537Z,8.67
2018-06-15T07:40:40.167Z,7.53
2018-06-15T07:43:07.882Z,6.17
2018-06-15T07:45:35.494Z,6.30
2018-06-15T07:48:03.141Z,6.87
2018-06-15T07:50:30.735Z,6.53
2018-06-15T07:52:58.318Z,6.23
2018-06-15T07:55:25.897Z,7.07
2018-06-15T07:57:53.522Z,7.10
2018-06-15T08:00:21.129Z,6.70
2018-06-15T08:02:48.969Z,6.67
2018-06-15T08:05:16.628Z,6.77
2018-06-15T08:07:44.225Z,7.13
2018-06-15T08:10:11.857Z,5.90
2018-06-15T08:12:39.447Z,6.17
2018-06-15T08:15:07.023Z,6.17
2018-06-15T08:17:34.598Z,5.13
2018-06-15T08:20:02.391Z,5.23
2018-06-15T08:22:30.157Z,5.90
2018-06-15T08:24:57.786Z,4.63
2018-06-15T08:27:25.401Z,4.60
2018-06-15T08:29:53.122Z,5.07
2018-06-15T08:32:20.683Z,5.40
2018-06-15T08:34:48.575Z,5.93
2018-06-15T08:37:16.230Z,6.90
2018-06-15T08:39:43.817Z,5.37
2018-06-15T08:42:11.381Z,5.60
2018-06-15T08:44:38.944Z,5.77
2018-06-15T08:47:06.525Z,5.87
2018-06-15T08:49:34.126Z,5.43
2018-06-15T08:52:01.731Z,4.50
2018-06-15T08:54:29.358Z,4.90
2018-06-15T08:56:56.954Z,4.63
2018-06-15T08:59:24.664Z,4.73
2018-06-15T09:01:52.367Z,6.70
2018-06-15T09:04:19.976Z,4.80
2018-06-15T09:06:47.723Z,4.40
2018-06-15T09:09:15.338Z,3.40
2018-06-15T09:11:42.902Z,4.30
2018-06-15T09:14:10.501Z,3.73
2018-06-15T09:16:38.067Z,4.53
2018-06-15T09:19:05.830Z,3.33
2018-06-15T09:21:33.409Z,3.23
2018-06-15T09:24:01.072Z,3.70
2018-06-15T09:26:28.688Z,4.10
2018-06-15T09:28:56.343Z,3.90
2018-06-15T09:31:24.061Z,4.43
2018-06-15T09:33:51.703Z,4.50
2018-06-15T09:36:19.335Z,6.30
2018-06-15T09:38:46.905Z,4.23
2018-06-15T09:41:14.597Z,4.10
2018-06-15T09:43:42.259Z,3.93
2018-06-15T09:46:10.026Z,3.87
2018-06-15T09:48:42.297Z,3.70
2018-06-15T09:51:10.506Z,3.60
2018-06-15T09:53:38.058Z,3.67
2018-06-15T09:56:05.710Z,3.90
2018-06-15T09:58:33.333Z,3.60
2018-06-15T10:01:07.305Z,3.67
2018-06-15T10:03:35.054Z,7.00
2018-06-15T10:06:03.447Z,4.30
2018-06-15T10:08:31.029Z,3.70
2018-06-15T10:10:58.754Z,4.00
2018-06-15T10:13:26.480Z,4.20
2018-06-15T10:15:54.281Z,3.97
2018-06-15T10:18:21.816Z,3.50
2018-06-15T10:20:49.433Z,3.80
2018-06-15T10:23:17.351Z,3.57
2018-06-15T10:25:45.169Z,3.73
2018-06-15T10:28:12.747Z,3.60
2018-06-15T10:30:40.798Z,3.50
2018-06-15T10:33:08.941Z,4.10
2018-06-15T10:35:36.793Z,3.57
2018-06-15T10:38:04.744Z,3.70
2018-06-15T10:40:32.672Z,4.00
2018-06-15T10:43:00.261Z,3.97
2018-06-15T10:45:30.147Z,3.80
2018-06-15T10:47:57.834Z,4.00
2018-06-15T10:50:25.469Z,3.63
2018-06-15T10:52:53.079Z,3.93
2018-06-15T10:55:20.795Z,3.60
2018-06-15T10:57:48.377Z,3.97
2018-06-15T11:00:16.181Z,4.00
2018-06-15T11:02:43.854Z,3.70
2018-06-15T11:05:11.465Z,10.80
2018-06-15T11:07:39.129Z,4.07
2018-06-15T11:10:06.755Z,3.60
2018-06-15T11:12:34.484Z,4.17
2018-06-15T11:15:02.951Z,3.30
2018-06-15T11:17:30.579Z,3.47
2018-06-15T11:19:58.265Z,3.80
2018-06-15T11:22:25.863Z,3.23
2018-06-15T11:24:53.514Z,3.57
2018-06-15T11:27:21.117Z,4.10
2018-06-15T11:29:48.736Z,3.43
2018-06-15T11:32:16.495Z,3.70
2018-06-15T11:34:44.032Z,3.20
2018-06-15T11:37:11.675Z,3.70
2018-06-15T11:39:39.336Z,4.00
2018-06-15T11:42:07.007Z,3.57
2018-06-15T11:44:34.659Z,3.37
2018-06-15T11:47:02.281Z,3.80
2018-06-15T11:49:29.873Z,3.87
2018-06-15T11:51:57.649Z,3.90
2018-06-15T11:54:25.247Z,3.97
2018-06-15T11:56:52.871Z,3.60
2018-06-15T11:59:20.526Z,3.50
2018-06-15T12:01:48.206Z,4.10
2018-06-15T12:04:15.846Z,3.60
2018-06-15T12:06:43.543Z,3.90
2018-06-15T12:09:11.104Z,3.60
2018-06-15T12:11:38.758Z,4.30
2018-06-15T12:14:06.318Z,3.63
2018-06-15T12:16:33.946Z,3.70
2018-06-15T12:19:01.777Z,3.80
2018-06-15T12:21:29.630Z,3.40
2018-06-15T12:23:57.213Z,4.40
2018-06-15T12:26:24.858Z,3.97
2018-06-15T12:28:52.568Z,3.40
2018-06-15T12:31:20.181Z,3.50
2018-06-15T12:33:47.819Z,3.63
2018-06-15T12:36:15.853Z,3.47
2018-06-15T12:38:43.477Z,3.50
2018-06-15T12:41:11.397Z,3.53
2018-06-15T12:43:39.030Z,3.90
2018-06-15T12:46:06.726Z,3.87
2018-06-15T12:48:34.362Z,4.30
2018-06-15T12:51:01.974Z,3.73
2018-06-15T12:53:29.574Z,3.77
2018-06-15T12:55:57.168Z,3.70
2018-06-15T12:58:24.886Z,3.80
2018-06-15T13:00:52.511Z,3.10
2018-06-15T13:03:20.125Z,3.50
2018-06-15T13:05:47.914Z,3.70
2018-06-15T13:08:15.675Z,3.90
2018-06-15T13:10:43.256Z,4.13
2018-06-15T13:13:10.866Z,3.63
2018-06-15T13:15:38.531Z,4.20
2018-06-15T13:18:06.181Z,3.37
2018-06-15T13:20:35.713Z,3.77
2018-06-15T13:23:03.341Z,4.10
2018-06-15T13:25:30.918Z,3.73
2018-06-15T13:27:58.516Z,3.20
2018-06-15T13:30:26.190Z,3.60
2018-06-15T13:32:53.825Z,3.77
2018-06-15T13:35:21.562Z,3.30
2018-06-15T13:37:49.142Z,3.50
2018-06-15T13:40:16.757Z,3.37
2018-06-15T13:42:44.358Z,3.97
2018-06-15T13:45:11.916Z,3.53
2018-06-15T13:47:39.529Z,3.70
2018-06-15T13:50:07.133Z,3.33
2018-06-15T13:52:34.754Z,3.77
2018-06-15T13:55:02.380Z,3.40
2018-06-15T13:57:29.937Z,3.90
2018-06-15T13:59:57.540Z,3.57
2018-06-15T14:02:25.138Z,3.60
2018-06-15T14:04:52.750Z,3.40
2018-06-15T14:07:20.444Z,3.13
2018-06-15T14:09:48.046Z,3.00
2018-06-15T14:12:15.825Z,3.30
2018-06-15T14:14:43.501Z,3.30
2018-06-15T14:17:11.059Z,3.17
2018-06-15T14:19:38.676Z,3.97
2018-06-15T14:22:06.232Z,3.00
2018-06-15T14:24:33.806Z,3.93
2018-06-15T14:27:01.397Z,3.67
2018-06-15T14:29:29.079Z,3.83
2018-06-15T14:31:56.676Z,3.80
2018-06-15T14:34:24.337Z,3.07
2018-06-15T14:36:51.934Z,2.97
2018-06-15T14:39:19.566Z,4.03
2018-06-15T14:41:47.187Z,3.40
2018-06-15T14:44:14.809Z,3.23
2018-06-15T14:46:42.393Z,2.97
2018-06-15T14:49:10.081Z,3.60
2018-06-15T14:51:37.610Z,3.10
2018-06-15T14:54:05.237Z,3.30
2018-06-15T14:56:32.873Z,2.93
2018-06-15T14:59:00.694Z,3.03
2018-06-15T15:01:28.577Z,3.00
2018-06-15T15:03:56.238Z,3.60
2018-06-15T15:06:23.874Z,3.20
2018-06-15T15:08:51.473Z,2.93
2018-06-15T15:11:19.030Z,3.00
2018-06-15T15:13:46.645Z,2.87
2018-06-15T15:16:14.193Z,3.50
2018-06-15T15:18:42.009Z,3.27
2018-06-15T15:21:09.649Z,3.10
2018-06-15T15:23:37.241Z,3.30
2018-06-15T15:26:04.830Z,2.80
2018-06-15T15:28:32.465Z,3.20
2018-06-15T15:31:00.104Z,2.73
2018-06-15T15:33:27.869Z,3.13
2018-06-15T15:35:55.698Z,3.20
2018-06-15T15:38:23.270Z,2.43
2018-06-15T15:40:50.860Z,3.20
2018-06-15T15:43:18.503Z,2.73
2018-06-15T15:45:46.124Z,2.63
2018-06-15T15:48:13.685Z,3.00
2018-06-15T15:50:41.303Z,3.13
2018-06-15T15:53:08.877Z,3.10
2018-06-15T15:55:36.483Z,2.63
2018-06-15T15:58:04.101Z,2.47
2018-06-15T16:00:32.538Z,3.10
2018-06-15T16:03:00.091Z,2.70
2018-06-15T16:05:27.698Z,2.37
2018-06-15T16:07:55.269Z,2.80
2018-06-15T16:10:22.881Z,2.50
2018-06-15T16:12:50.434Z,2.23
2018-06-15T16:15:18.026Z,2.73
2018-06-15T16:17:45.621Z,2.30
2018-06-15T16:20:13.276Z,2.27
2018-06-15T16:22:40.873Z,2.70
2018-06-15T16:25:08.507Z,2.50
2018-06-15T16:27:36.117Z,2.40
2018-06-15T16:30:04.077Z,2.90
2018-06-15T16:32:31.839Z,2.53
2018-06-15T16:34:59.454Z,3.40
2018-06-15T16:37:27.078Z,2.77
2018-06-15T16:39:54.741Z,2.60
2018-06-15T16:42:22.278Z,2.73
2018-06-15T16:44:49.906Z,3.73
2018-06-15T16:47:17.467Z,3.87
2018-06-15T16:49:45.049Z,3.00
2018-06-15T16:52:12.618Z,2.83
2018-06-15T16:54:40.214Z,2.10
2018-06-15T16:57:07.938Z,2.57
2018-06-15T16:59:35.534Z,2.87
2018-06-15T17:02:03.312Z,2.90
2018-06-15T17:04:30.856Z,2.80
2018-06-15T17:06:58.449Z,2.30
2018-06-15T17:09:26.035Z,2.20
2018-06-15T17:11:53.701Z,2.73
2018-06-15T17:14:21.382Z,2.90
2018-06-15T17:16:48.976Z,2.57
2018-06-15T17:19:16.593Z,2.93
2018-06-15T17:21:44.192Z,2.53
2018-06-15T17:24:11.785Z,2.70
2018-06-15T17:26:39.462Z,2.53
2018-06-15T17:29:07.225Z,3.10
2018-06-15T17:31:34.890Z,3.00
2018-06-15T17:34:02.446Z,2.90
2018-06-15T17:36:30.034Z,2.80
2018-06-15T17:38:57.573Z,2.33
2018-06-15T17:41:25.163Z,2.50
2018-06-15T17:43:52.747Z,2.60
2018-06-15T17:46:20.445Z,2.50
2018-06-15T17:48:48.106Z,2.40
2018-06-15T17:51:15.795Z,2.57
2018-06-15T17:53:43.374Z,3.07
2018-06-15T17:56:11.936Z,2.37
2018-06-15T17:58:40.034Z,2.70
2018-06-15T18:01:07.670Z,2.37
2018-06-15T18:03:35.295Z,2.30
2018-06-15T18:06:03.903Z,2.10
2018-06-15T18:08:31.508Z,2.50
2018-06-15T18:10:59.113Z,2.70
2018-06-15T18:13:26.678Z,2.60
2018-06-15T18:15:54.267Z,2.93
2018-06-15T18:18:21.876Z,2.27
2018-06-15T18:20:49.507Z,2.63
2018-06-15T18:23:17.171Z,1.90
2018-06-15T18:25:44.722Z,2.20
2018-06-15T18:28:12.322Z,2.30
2018-06-15T18:30:39.901Z,2.87
2018-06-15T18:33:07.512Z,2.37
2018-06-15T18:35:35.083Z,2.23
2018-06-15T18:38:02.746Z,2.30
2018-06-15T18:40:30.328Z,2.37
2018-06-15T18:42:57.898Z,1.87
2018-06-15T18:45:25.490Z,2.40
2018-06-15T18:47:53.067Z,2.30
2018-06-15T18:50:20.634Z,2.27
2018-06-15T18:52:48.192Z,2.40
2018-06-15T18:55:16.030Z,2.20
2018-06-15T18:57:43.672Z,2.50
2018-06-15T19:00:11.817Z,3.00
2018-06-15T19:02:39.830Z,2.93
2018-06-15T19:05:07.421Z,2.10
2018-06-15T19:07:35.062Z,3.00
2018-06-15T19:10:02.952Z,2.40
2018-06-15T19:12:30.737Z,2.97
2018-06-15T19:14:58.806Z,2.17
2018-06-15T19:17:26.494Z,2.30
2018-06-15T19:19:54.153Z,2.30
2018-06-15T19:22:22.654Z,2.10
2018-06-15T19:24:50.191Z,2.30
2018-06-15T19:27:17.922Z,2.30
2018-06-15T19:29:45.517Z,2.40
2018-06-15T19:32:13.127Z,2.40
2018-06-15T19:34:40.736Z,2.50
2018-06-15T19:37:08.400Z,2.40
2018-06-15T19:39:36.054Z,2.57
2018-06-15T19:42:04.515Z,2.17
2018-06-15T19:44:32.101Z,1.83
2018-06-15T19:46:59.750Z,2.47
2018-06-15T19:49:27.475Z,1.80
2018-06-15T19:51:55.157Z,2.30
2018-06-15T19:54:22.775Z,2.90
2018-06-15T19:56:50.342Z,2.37
2018-06-15T19:59:18.085Z,2.03
2018-06-15T20:01:45.657Z,2.20
2018-06-15T20:04:13.363Z,2.10
2018-06-15T20:06:41.253Z,2.27
2018-06-15T20:09:09.020Z,1.87
2018-06-15T20:11:37.582Z,2.10
2018-06-15T20:14:05.190Z,1.80
2018-06-15T20:16:32.776Z,2.50
2018-06-15T20:19:00.738Z,2.07
2018-06-15T20:21:28.285Z,2.33
2018-06-15T20:23:55.926Z,3.57
2018-06-15T20:26:23.569Z,2.97
2018-06-15T20:28:51.175Z,2.33
2018-06-15T20:31:18.732Z,2.83
2018-06-15T20:33:46.295Z,2.33
2018-06-15T20:36:14.212Z,2.30
2018-06-15T20:38:41.953Z,3.67
2018-06-15T20:41:10.044Z,2.20
2018-06-15T20:43:37.666Z,2.10
2018-06-15T20:46:05.348Z,3.80
2018-06-15T20:48:32.993Z,2.23
2018-06-15T20:51:00.559Z,2.43
2018-06-15T20:53:28.152Z,1.90
2018-06-15T20:55:55.956Z,2.30
2018-06-15T20:58:24.265Z,2.30
2018-06-15T21:00:52.001Z,2.07
2018-06-15T21:03:19.796Z,2.00
2018-06-15T21:05:47.408Z,2.20
2018-06-15T21:08:15.007Z,2.17
2018-06-15T21:10:42.586Z,2.20
2018-06-15T21:13:10.236Z,2.50
2018-06-15T21:15:38.002Z,2.17
2018-06-15T21:18:05.753Z,2.00
2018-06-15T21:20:33.377Z,1.77
2018-06-15T21:23:01.462Z,2.30
2018-06-15T21:25:29.036Z,2.33
2018-06-15T21:27:56.566Z,2.40
2018-06-15T21:30:24.174Z,2.00
2018-06-15T21:32:51.770Z,1.97
2018-06-15T21:35:19.323Z,2.50
2018-06-15T21:37:46.889Z,1.77
2018-06-15T21:40:14.455Z,1.93
2018-06-15T21:42:42.091Z,2.53
2018-06-15T21:45:09.729Z,2.10
2018-06-15T21:47:37.284Z,1.80
2018-06-15T21:50:05.014Z,2.50
2018-06-15T21:52:32.628Z,2.30
2018-06-15T21:55:00.484Z,2.70
2018-06-15T21:57:28.098Z,2.20
2018-06-15T21:59:55.717Z,1.90
2018-06-15T22:02:23.342Z,2.20
2018-06-15T22:04:51.014Z,2.10
2018-06-15T22:07:18.589Z,2.23
2018-06-15T22:09:46.200Z,2.17
2018-06-15T22:12:13.793Z,2.70
2018-06-15T22:14:41.462Z,2.50
2018-06-15T22:17:09.149Z,2.40
2018-06-15T22:19:36.952Z,2.33
2018-06-15T22:22:04.546Z,2.53
2018-06-15T22:24:32.417Z,2.03
2018-06-15T22:27:00.260Z,2.00
2018-06-15T22:29:28.437Z,2.17
2018-06-15T22:31:56.756Z,2.93
2018-06-15T22:34:25.432Z,2.50
2018-06-15T22:36:53.072Z,2.33
2018-06-15T22:39:20.670Z,2.23
2018-06-15T22:41:48.292Z,1.93
2018-06-15T22:44:15.870Z,2.20
2018-06-15T22:46:43.487Z,2.00
2018-06-15T22:49:11.594Z,2.33
2018-06-15T22:51:39.673Z,2.30
2018-06-15T22:54:07.378Z,2.43
2018-06-15T22:56:35.127Z,2.50
2018-06-15T22:59:02.856Z,2.17
2018-06-15T23:01:30.477Z,3.00
2018-06-15T23:03:58.267Z,2.20
2018-06-15T23:06:26.329Z,2.10
2018-06-15T23:08:54.100Z,2.60
2018-06-15T23:11:21.751Z,1.83
2018-06-15T23:13:49.374Z,2.20
2018-06-15T23:16:17.192Z,2.07
2018-06-15T23:18:44.761Z,2.10
2018-06-15T23:21:12.410Z,2.07
2018-06-15T23:23:40.471Z,2.20
2018-06-15T23:26:08.302Z,2.50
2018-06-15T23:28:35.979Z,1.77
2018-06-15T23:31:03.637Z,2.13
2018-06-15T23:33:31.210Z,2.00
2018-06-15T23:35:58.912Z,2.27
2018-06-15T23:38:26.549Z,2.37
2018-06-15T23:40:54.182Z,2.10
2018-06-15T23:43:21.781Z,2.30
2018-06-15T23:45:49.429Z,2.03
2018-06-15T23:48:17.067Z,2.40
2018-06-15T23:50:44.683Z,3.10
2018-06-15T23:53:12.238Z,2.27
2018-06-15T23:55:39.833Z,2.20
2018-06-15T23:58:07.635Z,2.30
